createdAt,value
2023-03-27T00:01:12.005Z,10.30
2023-03-27T00:03:40.441Z,10.28
2023-03-27T00:06:11.461Z,10.25
2023-03-27T00:08:38.587Z,10.24
2023-03-27T00:11:08.250Z,10.21
2023-03-27T00:13:35.550Z,10.19
2023-03-27T00:16:03.025Z,10.17
2023-03-27T00:18:29.723Z,10.17
2023-03-27T00:21:00.929Z,10.14
2023-03-27T00:23:31.687Z,10.14
2023-03-27T00:25:59.127Z,10.12
2023-03-27T00:28:28.672Z,10.10
2023-03-27T00:30:57.664Z,10.09
2023-03-27T00:33:25.364Z,10.05
2023-03-27T00:35:52.681Z,10.03
2023-03-27T00:38:19.700Z,10.01
2023-03-27T00:40:49.364Z,9.98
2023-03-27T00:43:26.212Z,9.95
2023-03-27T00:45:58.584Z,9.91
2023-03-27T00:48:25.687Z,9.89
2023-03-27T00:50:53.228Z,9.87
2023-03-27T00:53:26.378Z,9.83
2023-03-27T00:55:58.591Z,9.82
2023-03-27T00:58:31.802Z,9.78
2023-03-27T01:00:58.716Z,9.75
2023-03-27T01:03:31.251Z,9.73
2023-03-27T01:06:01.349Z,9.69
2023-03-27T01:08:33.020Z,9.66
2023-03-27T01:11:09.850Z,9.62
2023-03-27T01:14:14.217Z,9.60
2023-03-27T01:16:55.361Z,9.57
2023-03-27T01:19:59.123Z,9.52
2023-03-27T01:22:53.597Z,9.50
2023-03-27T01:25:57.648Z,9.47
2023-03-27T01:28:32.475Z,9.44
2023-03-27T01:31:30.134Z,9.42
2023-03-27T01:34:38.371Z,9.37
2023-03-27T01:37:24.826Z,9.35
2023-03-27T01:40:09.070Z,9.31
2023-03-27T01:42:50.406Z,9.29
2023-03-27T01:45:25.279Z,9.29
2023-03-27T01:48:25.050Z,9.24
2023-03-27T01:50:57.380Z,9.24
2023-03-27T01:53:29.530Z,9.22
2023-03-27T01:56:25.999Z,9.19
2023-03-27T01:58:59.276Z,9.19
2023-03-27T02:01:33.760Z,9.17
2023-03-27T02:04:03.017Z,9.15
2023-03-27T02:06:41.966Z,9.12
2023-03-27T02:09:18.937Z,9.10
2023-03-27T02:11:52.865Z,9.09
2023-03-27T02:14:23.943Z,9.08
2023-03-27T02:16:54.897Z,9.06
2023-03-27T02:19:25.974Z,9.04
2023-03-27T02:21:52.564Z,9.03
2023-03-27T02:24:19.576Z,9.00
2023-03-27T02:26:49.219Z,8.99
2023-03-27T02:29:55.827Z,8.96
2023-03-27T02:32:41.091Z,8.93
2023-03-27T02:35:33.826Z,8.93
2023-03-27T02:38:14.442Z,8.91
2023-03-27T02:40:51.697Z,8.89
2023-03-27T02:43:42.912Z,8.87
2023-03-27T02:46:12.946Z,8.86
2023-03-27T02:49:06.503Z,8.84
2023-03-27T02:51:43.213Z,8.81
2023-03-27T02:54:15.750Z,8.78
2023-03-27T02:56:47.652Z,8.75
2023-03-27T02:59:22.461Z,8.72
2023-03-27T03:01:49.621Z,8.70
2023-03-27T03:04:41.888Z,8.67
2023-03-27T03:07:11.342Z,8.66
2023-03-27T03:09:40.600Z,8.64
2023-03-27T03:12:07.947Z,8.63
2023-03-27T03:14:39.491Z,8.60
2023-03-27T03:17:06.061Z,8.58
2023-03-27T03:19:32.654Z,8.57
2023-03-27T03:21:59.080Z,8.56
2023-03-27T03:24:27.526Z,8.55
2023-03-27T03:26:54.031Z,8.55
2023-03-27T03:29:20.664Z,8.56
2023-03-27T03:31:47.426Z,8.56
2023-03-27T03:34:18.972Z,8.53
2023-03-27T03:36:50.179Z,8.52
2023-03-27T03:39:18.229Z,8.50
2023-03-27T03:41:44.790Z,8.50
2023-03-27T03:44:11.237Z,8.52
2023-03-27T03:46:38.011Z,8.51
2023-03-27T03:49:07.839Z,8.52
2023-03-27T03:51:35.248Z,8.50
2023-03-27T03:54:02.549Z,8.50
2023-03-27T03:56:30.518Z,8.51
2023-03-27T03:58:57.458Z,8.53
2023-03-27T04:01:23.969Z,8.54
2023-03-27T04:03:50.551Z,8.56
2023-03-27T04:06:25.526Z,8.58
2023-03-27T04:08:53.002Z,8.62
2023-03-27T04:11:19.917Z,8.62
2023-03-27T04:13:46.360Z,8.61
2023-03-27T04:16:12.800Z,8.61
2023-03-27T04:18:41.174Z,8.59
2023-03-27T04:21:14.858Z,8.57
2023-03-27T04:23:42.098Z,8.56
2023-03-27T04:26:12.465Z,8.55
2023-03-27T04:28:39.917Z,8.55
2023-03-27T04:31:08.087Z,8.53
2023-03-27T04:33:39.403Z,8.52
2023-03-27T04:36:08.131Z,8.51
2023-03-27T04:38:36.915Z,8.48
2023-03-27T04:41:04.174Z,8.47
2023-03-27T04:43:30.750Z,8.45
2023-03-27T04:45:57.340Z,8.45
2023-03-27T04:48:23.904Z,8.42
2023-03-27T04:50:50.537Z,8.41
2023-03-27T04:53:17.996Z,8.42
2023-03-27T04:55:45.781Z,8.41
2023-03-27T04:58:12.650Z,8.41
2023-03-27T05:00:40.141Z,8.40
2023-03-27T05:03:06.895Z,8.40
2023-03-27T05:05:34.705Z,8.40
2023-03-27T05:08:01.637Z,8.37
2023-03-27T05:10:27.966Z,8.36
2023-03-27T05:12:56.442Z,8.34
2023-03-27T05:15:24.372Z,8.31
2023-03-27T05:17:54.466Z,8.29
2023-03-27T05:20:22.080Z,8.27
2023-03-27T05:22:49.066Z,8.25
2023-03-27T05:25:15.673Z,8.22
2023-03-27T05:27:46.818Z,8.20
2023-03-27T05:30:16.038Z,8.19
2023-03-27T05:32:51.768Z,8.17
2023-03-27T05:35:20.917Z,8.17
2023-03-27T05:37:49.063Z,8.17
2023-03-27T05:40:17.218Z,8.16
2023-03-27T05:42:46.950Z,8.16
2023-03-27T05:45:14.415Z,8.17
2023-03-27T05:47:58.731Z,8.16
2023-03-27T05:50:33.215Z,8.18
2023-03-27T05:53:10.312Z,8.17
2023-03-27T05:55:38.704Z,8.20
2023-03-27T05:58:10.004Z,8.21
2023-03-27T06:00:42.219Z,8.21
2023-03-27T06:03:10.704Z,8.22
2023-03-27T06:05:40.223Z,8.22
2023-03-27T06:08:13.950Z,8.26
2023-03-27T06:10:43.211Z,8.30
2023-03-27T06:13:13.594Z,8.35
2023-03-27T06:15:42.611Z,8.39
2023-03-27T06:18:10.103Z,8.45
2023-03-27T06:20:38.024Z,8.51
2023-03-27T06:23:09.163Z,8.55
2023-03-27T06:25:37.442Z,8.61
2023-03-27T06:28:07.006Z,8.67
2023-03-27T06:30:33.677Z,8.71
2023-03-27T06:33:00.616Z,8.79
2023-03-27T06:35:34.055Z,8.83
2023-03-27T06:38:04.645Z,8.90
2023-03-27T06:40:35.075Z,8.98
2023-03-27T06:43:07.157Z,9.05
2023-03-27T06:45:51.712Z,9.11
2023-03-27T06:48:21.938Z,9.18
2023-03-27T06:50:51.452Z,9.18
2023-03-27T06:55:48.718Z,9.23
2023-03-27T06:58:16.642Z,9.27
2023-03-27T07:00:43.626Z,9.27
2023-03-27T07:03:11.671Z,9.29
2023-03-27T07:05:40.914Z,9.33
2023-03-27T07:08:22.571Z,9.36
2023-03-27T07:11:03.908Z,9.40
2023-03-27T07:13:38.518Z,9.43
2023-03-27T07:16:05.501Z,9.46
2023-03-27T07:18:32.137Z,9.50
2023-03-27T07:20:58.770Z,9.53
2023-03-27T07:23:25.324Z,9.58
2023-03-27T07:25:52.204Z,9.62
2023-03-27T07:28:20.329Z,9.68
2023-03-27T07:30:46.984Z,9.75
2023-03-27T07:33:14.178Z,9.82
2023-03-27T07:35:45.609Z,9.93
2023-03-27T07:38:12.498Z,10.02
2023-03-27T07:40:40.515Z,10.13
2023-03-27T07:43:07.504Z,10.25
2023-03-27T07:45:35.139Z,10.38
2023-03-27T07:48:09.409Z,10.50
2023-03-27T07:50:36.347Z,10.65
2023-03-27T07:53:04.554Z,10.77
2023-03-27T07:55:31.223Z,10.91
2023-03-27T07:58:02.460Z,11.05
2023-03-27T08:00:31.614Z,11.21
2023-03-27T08:03:10.025Z,11.32
2023-03-27T08:05:37.232Z,11.49
2023-03-27T08:08:04.813Z,11.67
2023-03-27T08:10:31.570Z,11.79
2023-03-27T08:12:58.177Z,11.92
2023-03-27T08:15:25.486Z,12.06
2023-03-27T08:17:54.632Z,12.18
2023-03-27T08:20:23.066Z,12.30
2023-03-27T08:22:52.944Z,12.43
2023-03-27T08:25:22.362Z,12.56
2023-03-27T08:27:49.432Z,12.68
2023-03-27T08:30:17.101Z,12.78
2023-03-27T08:32:44.728Z,12.88
2023-03-27T08:35:12.305Z,12.94
2023-03-27T08:37:39.433Z,12.96
2023-03-27T08:40:13.307Z,12.96
2023-03-27T08:42:42.692Z,12.93
2023-03-27T08:45:19.195Z,12.92
2023-03-27T08:47:53.682Z,12.91
2023-03-27T08:50:41.122Z,12.89
2023-03-27T08:53:19.855Z,12.92
2023-03-27T08:55:46.496Z,12.93
2023-03-27T08:58:19.378Z,12.93
2023-03-27T09:00:56.554Z,12.97
2023-03-27T09:03:31.575Z,12.99
2023-03-27T09:06:34.310Z,13.00
2023-03-27T09:09:11.488Z,13.02
2023-03-27T09:11:50.115Z,13.04
2023-03-27T09:14:32.371Z,13.09
2023-03-27T09:17:05.204Z,13.13
2023-03-27T09:19:44.211Z,13.09
2023-03-27T09:22:17.123Z,13.11
2023-03-27T09:24:49.061Z,13.09
2023-03-27T09:27:29.468Z,13.11
2023-03-27T09:30:19.838Z,13.16
2023-03-27T09:32:54.266Z,13.21
2023-03-27T09:35:21.665Z,13.25
2023-03-27T09:37:54.069Z,13.27
2023-03-27T09:40:33.835Z,13.29
2023-03-27T09:43:08.897Z,13.32
2023-03-27T09:45:40.539Z,13.36
2023-03-27T09:48:15.047Z,13.36
2023-03-27T09:50:47.579Z,13.38
2023-03-27T09:53:19.333Z,13.37
2023-03-27T09:55:52.765Z,13.37
2023-03-27T09:58:35.688Z,13.34
2023-03-27T10:01:15.861Z,13.36
2023-03-27T10:03:48.876Z,13.37
2023-03-27T10:06:30.773Z,13.37
2023-03-27T10:09:02.506Z,13.43
2023-03-27T10:11:33.796Z,13.47
2023-03-27T10:14:09.873Z,13.55
2023-03-27T10:16:43.361Z,13.59
2023-03-27T10:19:31.122Z,13.62
2023-03-27T10:22:03.437Z,13.66
2023-03-27T10:24:44.468Z,13.66
2023-03-27T10:27:27.636Z,13.64
2023-03-27T10:29:54.061Z,13.64
2023-03-27T10:32:45.327Z,13.58
2023-03-27T10:35:28.621Z,13.59
2023-03-27T10:37:55.480Z,13.62
2023-03-27T10:40:26.205Z,13.62
2023-03-27T10:42:56.741Z,13.59
2023-03-27T10:45:23.583Z,13.55
2023-03-27T10:47:57.045Z,13.50
2023-03-27T10:50:57.308Z,13.44
2023-03-27T10:53:37.217Z,13.45
2023-03-27T10:56:12.381Z,13.45
2023-03-27T10:59:00.009Z,13.46
2023-03-27T11:01:34.532Z,13.54
2023-03-27T11:04:36.554Z,13.57
2023-03-27T11:07:06.475Z,13.68
2023-03-27T11:09:38.447Z,13.72
2023-03-27T11:12:09.690Z,13.77
2023-03-27T11:15:07.780Z,13.79
2023-03-27T11:17:51.131Z,13.86
2023-03-27T11:20:27.865Z,13.91
2023-03-27T11:23:04.677Z,13.95
2023-03-27T11:25:46.801Z,13.99
2023-03-27T11:28:52.869Z,14.02
2023-03-27T11:31:38.231Z,14.09
2023-03-27T11:34:28.994Z,14.09
2023-03-27T11:37:11.223Z,14.06
2023-03-27T11:39:48.496Z,14.02
2023-03-27T11:42:18.958Z,13.93
2023-03-27T11:44:45.593Z,13.91
2023-03-27T11:47:27.704Z,13.89
2023-03-27T11:50:18.990Z,13.94
2023-03-27T11:53:19.423Z,14.00
2023-03-27T11:56:13.264Z,14.08
2023-03-27T11:59:16.869Z,14.13
2023-03-27T12:02:32.858Z,14.21
2023-03-27T12:05:06.477Z,14.28
2023-03-27T12:08:07.441Z,14.31
2023-03-27T12:10:36.138Z,14.36
2023-03-27T12:13:41.280Z,14.33
2023-03-27T12:16:30.936Z,14.32
2023-03-27T12:19:03.898Z,14.29
2023-03-27T12:21:39.139Z,14.25
2023-03-27T12:24:23.997Z,14.10
2023-03-27T12:26:50.636Z,14.06
2023-03-27T12:29:39.234Z,13.94
2023-03-27T12:32:15.728Z,13.93
2023-03-27T12:35:07.400Z,13.86
2023-03-27T12:37:56.121Z,13.86
2023-03-27T12:40:28.192Z,13.91
2023-03-27T12:43:05.499Z,13.94
2023-03-27T12:48:09.865Z,14.08
2023-03-27T12:50:57.846Z,14.15
2023-03-27T12:53:27.351Z,14.19
2023-03-27T12:56:16.544Z,14.15
2023-03-27T12:58:48.351Z,14.17
2023-03-27T13:01:52.210Z,14.11
2023-03-27T13:04:48.285Z,14.04
2023-03-27T13:07:45.940Z,13.90
2023-03-27T13:10:20.507Z,13.78
2023-03-27T13:13:05.354Z,13.68
2023-03-27T13:15:52.607Z,13.60
2023-03-27T13:18:34.547Z,13.52
2023-03-27T13:21:21.423Z,13.45
2023-03-27T13:24:10.073Z,13.41
2023-03-27T13:27:00.934Z,13.33
2023-03-27T13:29:32.680Z,13.32
2023-03-27T13:32:06.010Z,13.32
2023-03-27T13:34:36.537Z,13.35
2023-03-27T13:37:14.003Z,13.34
2023-03-27T13:39:48.115Z,13.39
2023-03-27T13:42:24.210Z,13.37
2023-03-27T13:45:04.200Z,13.37
2023-03-27T13:47:33.601Z,13.36
2023-03-27T13:50:06.122Z,13.32
2023-03-27T13:52:56.940Z,13.31
2023-03-27T13:55:42.258Z,13.33
2023-03-27T13:58:21.476Z,13.35
2023-03-27T14:01:22.003Z,13.38
2023-03-27T14:04:13.723Z,13.42
2023-03-27T14:07:21.736Z,13.44
2023-03-27T14:09:48.205Z,13.51
2023-03-27T14:12:20.706Z,13.50
2023-03-27T14:14:59.339Z,13.51
2023-03-27T14:17:28.663Z,13.48
2023-03-27T14:20:19.120Z,13.44
2023-03-27T14:23:03.600Z,13.39
2023-03-27T14:25:34.444Z,13.35
2023-03-27T14:28:01.304Z,13.33
2023-03-27T14:30:41.610Z,13.30
2023-03-27T14:33:10.091Z,13.27
2023-03-27T14:35:36.617Z,13.26
2023-03-27T14:38:25.400Z,13.24
2023-03-27T14:40:57.186Z,13.19
2023-03-27T14:43:27.478Z,13.13
2023-03-27T14:45:58.626Z,13.08
2023-03-27T14:48:33.266Z,13.05
2023-03-27T14:51:06.283Z,13.02
2023-03-27T14:53:36.318Z,13.00
2023-03-27T14:56:11.672Z,12.98
2023-03-27T14:58:43.830Z,13.00
2023-03-27T15:01:10.675Z,13.05
2023-03-27T15:03:38.749Z,13.12
2023-03-27T15:06:16.996Z,13.18
2023-03-27T15:08:50.821Z,13.24
2023-03-27T15:11:21.567Z,13.28
2023-03-27T15:13:48.570Z,13.32
2023-03-27T15:16:20.737Z,13.36
2023-03-27T15:18:58.885Z,13.42
2023-03-27T15:21:39.069Z,13.45
2023-03-27T15:24:13.701Z,13.52
2023-03-27T15:26:40.998Z,13.59
2023-03-27T15:29:17.919Z,13.61
2023-03-27T15:31:48.966Z,13.62
2023-03-27T15:34:51.476Z,13.58
2023-03-27T15:37:25.382Z,13.58
2023-03-27T15:39:57.957Z,13.56
2023-03-27T15:42:24.821Z,13.56
2023-03-27T15:44:51.430Z,13.55
2023-03-27T15:47:26.119Z,13.52
2023-03-27T15:50:14.295Z,13.53
2023-03-27T15:52:48.204Z,13.57
2023-03-27T15:55:32.286Z,13.61
2023-03-27T15:57:59.752Z,13.66
2023-03-27T16:00:28.324Z,13.69
2023-03-27T16:02:55.605Z,13.72
2023-03-27T16:05:22.002Z,13.68
2023-03-27T16:07:49.025Z,13.56
2023-03-27T16:10:29.980Z,13.34
2023-03-27T16:13:03.044Z,13.21
2023-03-27T16:15:34.375Z,13.07
2023-03-27T16:18:17.479Z,12.92
2023-03-27T16:20:44.873Z,12.86
2023-03-27T16:23:11.871Z,12.79
2023-03-27T16:25:39.009Z,12.73
2023-03-27T16:28:08.996Z,12.64
2023-03-27T16:30:39.184Z,12.57
2023-03-27T16:33:16.983Z,12.47
2023-03-27T16:35:45.303Z,12.46
2023-03-27T16:38:13.605Z,12.44
2023-03-27T16:40:40.013Z,12.42
2023-03-27T16:43:07.139Z,12.41
2023-03-27T16:45:33.862Z,12.40
2023-03-27T16:48:00.324Z,12.41
2023-03-27T16:50:30.804Z,12.42
2023-03-27T16:52:57.697Z,12.43
2023-03-27T16:55:25.022Z,12.43
2023-03-27T16:57:52.423Z,12.46
2023-03-27T17:00:20.026Z,12.49
2023-03-27T17:02:47.261Z,12.52
2023-03-27T17:05:14.495Z,12.55
2023-03-27T17:07:46.683Z,12.52
2023-03-27T17:10:13.115Z,12.48
2023-03-27T17:12:39.513Z,12.44
2023-03-27T17:15:06.737Z,12.37
2023-03-27T17:17:33.105Z,12.29
2023-03-27T17:20:00.356Z,12.21
2023-03-27T17:22:29.548Z,12.15
2023-03-27T17:24:57.701Z,12.08
2023-03-27T17:27:26.421Z,12.04
2023-03-27T17:29:53.059Z,12.00
2023-03-27T17:32:19.416Z,11.98
2023-03-27T17:34:45.794Z,11.96
2023-03-27T17:37:12.469Z,11.96
2023-03-27T17:39:39.203Z,11.96
2023-03-27T17:42:06.483Z,11.97
2023-03-27T17:44:33.036Z,11.97
2023-03-27T17:47:00.492Z,11.96
2023-03-27T17:49:27.837Z,11.96
2023-03-27T17:51:54.182Z,11.95
2023-03-27T17:54:20.554Z,11.94
2023-03-27T17:56:46.902Z,11.94
2023-03-27T17:59:13.272Z,11.91
2023-03-27T18:01:39.785Z,11.88
2023-03-27T18:04:06.678Z,11.86
2023-03-27T18:06:33.354Z,11.84
2023-03-27T18:08:59.815Z,11.82
2023-03-27T18:11:26.562Z,11.80
2023-03-27T18:13:53.231Z,11.78
2023-03-27T18:16:21.579Z,11.77
2023-03-27T18:18:48.238Z,11.75
2023-03-27T18:21:16.211Z,11.74
2023-03-27T18:23:46.061Z,11.75
2023-03-27T18:26:13.951Z,11.75
2023-03-27T18:28:40.627Z,11.77
2023-03-27T18:31:09.702Z,11.79
2023-03-27T18:33:36.896Z,11.81
2023-03-27T18:36:05.925Z,11.82
2023-03-27T18:38:32.569Z,11.82
2023-03-27T18:41:00.087Z,11.80
2023-03-27T18:43:26.733Z,11.77
2023-03-27T18:46:01.544Z,11.77
2023-03-27T18:48:30.307Z,11.77
2023-03-27T18:50:57.821Z,11.78
2023-03-27T18:53:25.480Z,11.81
2023-03-27T18:55:53.054Z,11.79
2023-03-27T18:58:21.372Z,11.76
2023-03-27T19:00:47.979Z,11.75
2023-03-27T19:03:17.803Z,11.73
2023-03-27T19:05:44.982Z,11.68
2023-03-27T19:08:11.781Z,11.68
2023-03-27T19:10:38.506Z,11.65
2023-03-27T19:13:05.370Z,11.65
2023-03-27T19:15:32.250Z,11.63
2023-03-27T19:17:59.118Z,11.62
2023-03-27T19:20:25.680Z,11.60
2023-03-27T19:22:52.373Z,11.56
2023-03-27T19:25:19.082Z,11.54
2023-03-27T19:27:45.457Z,11.50
2023-03-27T19:30:14.073Z,11.44
2023-03-27T19:32:41.026Z,11.42
2023-03-27T19:35:07.775Z,11.36
2023-03-27T19:37:35.494Z,11.31
2023-03-27T19:40:02.234Z,11.27
2023-03-27T19:42:29.424Z,11.24
2023-03-27T19:44:56.135Z,11.19
2023-03-27T19:47:22.694Z,11.15
2023-03-27T19:49:49.138Z,11.12
2023-03-27T19:52:16.830Z,11.09
2023-03-27T19:54:43.438Z,11.06
2023-03-27T19:57:10.097Z,11.03
2023-03-27T19:59:36.849Z,11.00
2023-03-27T20:02:04.366Z,10.97
2023-03-27T20:04:31.026Z,10.94
2023-03-27T20:06:58.901Z,10.91
2023-03-27T20:09:25.710Z,10.90
2023-03-27T20:11:53.478Z,10.86
2023-03-27T20:14:19.793Z,10.84
2023-03-27T20:16:46.788Z,10.81
2023-03-27T20:19:15.803Z,10.76
2023-03-27T20:21:43.689Z,10.73
2023-03-27T20:24:13.152Z,10.69
2023-03-27T20:26:41.873Z,10.65
2023-03-27T20:29:10.983Z,10.61
2023-03-27T20:31:38.194Z,10.55
2023-03-27T20:34:06.470Z,10.50
2023-03-27T20:36:34.845Z,10.46
2023-03-27T20:39:04.564Z,10.43
2023-03-27T20:41:30.911Z,10.41
2023-03-27T20:43:58.840Z,10.37
2023-03-27T20:46:30.114Z,10.31
2023-03-27T20:48:57.440Z,10.26
2023-03-27T20:51:24.193Z,10.22
2023-03-27T20:53:55.981Z,10.18
2023-03-27T20:56:23.115Z,10.15
2023-03-27T20:58:49.486Z,10.13
2023-03-27T21:01:19.216Z,10.11
2023-03-27T21:03:46.401Z,10.08
2023-03-27T21:06:16.179Z,10.04
2023-03-27T21:08:43.066Z,10.01
2023-03-27T21:11:10.500Z,9.99
2023-03-27T21:13:37.224Z,9.97
2023-03-27T21:16:04.423Z,9.95
2023-03-27T21:18:30.877Z,9.94
2023-03-27T21:20:57.490Z,9.92
2023-03-27T21:23:24.067Z,9.91
2023-03-27T21:25:53.495Z,9.88
2023-03-27T21:28:19.852Z,9.89
2023-03-27T21:30:48.996Z,9.86
2023-03-27T21:33:16.322Z,9.85
2023-03-27T21:35:48.222Z,9.82
2023-03-27T21:38:16.344Z,9.82
2023-03-27T21:40:43.069Z,9.82
2023-03-27T21:43:09.552Z,9.79
2023-03-27T21:45:36.780Z,9.79
2023-03-27T21:48:03.654Z,9.77
2023-03-27T21:50:30.304Z,9.77
2023-03-27T21:52:57.218Z,9.75
2023-03-27T21:55:24.126Z,9.75
2023-03-27T21:57:51.823Z,9.74
2023-03-27T22:00:18.835Z,9.73
2023-03-27T22:02:45.509Z,9.72
2023-03-27T22:05:11.885Z,9.71
2023-03-27T22:07:38.393Z,9.69
2023-03-27T22:10:06.463Z,9.68
2023-03-27T22:12:36.747Z,9.66
2023-03-27T22:15:04.837Z,9.65
2023-03-27T22:17:31.395Z,9.65
2023-03-27T22:19:59.088Z,9.63
2023-03-27T22:22:26.408Z,9.61
2023-03-27T22:24:52.999Z,9.59
2023-03-27T22:27:19.352Z,9.56
2023-03-27T22:29:45.849Z,9.53
2023-03-27T22:32:12.219Z,9.51
2023-03-27T22:34:38.627Z,9.50
2023-03-27T22:37:06.508Z,9.48
2023-03-27T22:39:33.207Z,9.48
2023-03-27T22:41:59.639Z,9.45
2023-03-27T22:44:26.436Z,9.44
2023-03-27T22:46:53.074Z,9.41
2023-03-27T22:49:19.803Z,9.40
2023-03-27T22:51:46.425Z,9.37
2023-03-27T22:54:12.777Z,9.36
2023-03-27T22:56:39.278Z,9.32
2023-03-27T22:59:06.233Z,9.30
2023-03-27T23:01:32.931Z,9.29
2023-03-27T23:03:59.440Z,9.27
2023-03-27T23:06:26.441Z,9.23
2023-03-27T23:08:53.162Z,9.23
2023-03-27T23:11:20.249Z,9.22
2023-03-27T23:13:47.620Z,9.20
2023-03-27T23:16:14.470Z,9.17
2023-03-27T23:18:41.598Z,9.16
2023-03-27T23:21:12.751Z,9.14
2023-03-27T23:23:40.496Z,9.14
2023-03-27T23:26:08.000Z,9.11
2023-03-27T23:28:37.244Z,9.11
2023-03-27T23:31:06.766Z,9.10
2023-03-27T23:33:36.431Z,9.09
2023-03-27T23:36:09.203Z,9.08
2023-03-27T23:38:37.208Z,9.09
2023-03-27T23:41:05.231Z,9.07
2023-03-27T23:43:32.271Z,9.07
2023-03-27T23:45:59.540Z,9.06
2023-03-27T23:48:30.276Z,9.04
2023-03-27T23:50:58.950Z,9.02
2023-03-27T23:53:27.409Z,9.00
2023-03-27T23:55:56.130Z,9.00
2023-03-27T23:58:23.514Z,9.02
